Terminal Aerodrome Forecast
Issued by NWS

Home | Current Version | Previous Version | Text Only | Print | Product List | Glossary On
Versions: 1 2 3 4 5 6 7 8 9 10 11 12 13 14 15 16 17 18 19 20
000
FTUS41 KCAR 251752 AAA
TAFBHB
TAF AMD
KBHB 251752Z 2518/2618 22009KT P6SM SCT250
     FM260200 21008KT P6SM OVC045
     FM260300 21008KT P6SM OVC040
     FM260500 20009KT 3SM -SHRA OVC008
     FM260800 20006KT 3SM -SHRA OVC005
     FM260900 20006KT 2SM BR OVC006
     FM261200 22011KT P6SM BKN015
      AMD LTD TO CLD VIS AND WIND=

USA.gov is the U.S. government's official web portal to all federal, state and local government web resources and services.